createdAt,value
2018-07-08T00:01:36.578Z,3.00
2018-07-08T00:04:39.580Z,3.13
2018-07-08T00:07:42.837Z,3.37
2018-07-08T00:10:50.742Z,2.90
2018-07-08T00:13:53.908Z,3.00
2018-07-08T00:16:57.141Z,2.87
2018-07-08T00:20:00.390Z,3.10
2018-07-08T00:23:03.539Z,3.37
2018-07-08T00:26:06.703Z,3.50
2018-07-08T00:29:09.865Z,2.93
2018-07-08T00:32:13.267Z,3.50
2018-07-08T00:35:16.470Z,3.90
2018-07-08T00:38:19.664Z,4.40
2018-07-08T00:41:22.824Z,3.77
2018-07-08T00:44:26.033Z,3.43
2018-07-08T00:47:29.164Z,3.03
2018-07-08T00:50:32.341Z,3.10
2018-07-08T00:53:35.531Z,3.60
2018-07-08T00:56:38.718Z,3.30
2018-07-08T00:59:41.930Z,3.67
2018-07-08T01:02:45.081Z,3.83
2018-07-08T01:05:48.240Z,3.47
2018-07-08T01:08:51.452Z,3.57
2018-07-08T01:11:54.548Z,3.70
2018-07-08T01:14:57.777Z,3.23
2018-07-08T01:18:00.924Z,4.57
2018-07-08T01:21:04.152Z,3.93
2018-07-08T01:24:07.404Z,3.43
2018-07-08T01:27:10.624Z,3.57
2018-07-08T01:30:14.808Z,3.63
2018-07-08T01:33:18.067Z,3.13
2018-07-08T01:36:21.099Z,3.20
2018-07-08T01:39:24.292Z,3.30
2018-07-08T01:42:27.909Z,2.93
2018-07-08T01:45:31.147Z,3.40
2018-07-08T01:48:34.399Z,3.90
2018-07-08T01:51:37.613Z,3.60
2018-07-08T01:54:41.414Z,3.50
2018-07-08T01:57:44.648Z,3.73
2018-07-08T02:00:47.887Z,4.00
2018-07-08T02:03:52.100Z,4.20
2018-07-08T02:06:55.364Z,4.43
2018-07-08T02:09:58.584Z,3.80
2018-07-08T02:13:01.844Z,3.97
2018-07-08T02:16:05.200Z,4.33
2018-07-08T02:19:08.416Z,4.27
2018-07-08T02:22:11.698Z,3.87
2018-07-08T02:25:14.955Z,4.43
2018-07-08T02:28:18.201Z,4.57
2018-07-08T02:31:21.472Z,4.80
2018-07-08T02:34:25.021Z,4.73
2018-07-08T02:37:28.378Z,3.83
2018-07-08T02:40:31.695Z,3.93
2018-07-08T02:43:34.945Z,4.67
2018-07-08T02:46:38.388Z,4.60
2018-07-08T02:49:41.663Z,4.50
2018-07-08T02:52:44.859Z,4.77
2018-07-08T02:55:48.157Z,4.27
2018-07-08T02:58:51.391Z,4.47
2018-07-08T03:01:54.627Z,3.97
2018-07-08T03:04:58.020Z,3.40
2018-07-08T03:08:01.041Z,4.20
2018-07-08T03:11:04.176Z,3.73
2018-07-08T03:14:08.339Z,4.53
2018-07-08T03:17:11.504Z,4.00
2018-07-08T03:20:14.668Z,4.10
2018-07-08T03:23:18.261Z,4.30
2018-07-08T03:26:21.391Z,3.97
2018-07-08T03:29:24.548Z,3.70
2018-07-08T03:32:27.698Z,3.73
2018-07-08T03:35:30.856Z,3.37
2018-07-08T03:38:34.137Z,3.77
2018-07-08T03:41:37.807Z,3.53
2018-07-08T03:44:41.287Z,3.60
2018-07-08T03:47:44.570Z,3.60
2018-07-08T03:50:47.939Z,4.43
2018-07-08T03:53:51.168Z,3.87
2018-07-08T03:56:54.661Z,3.53
2018-07-08T03:59:58.244Z,4.47
2018-07-08T04:03:01.691Z,3.00
2018-07-08T04:06:05.380Z,3.90
2018-07-08T04:09:08.542Z,3.73
2018-07-08T04:12:12.133Z,3.63
2018-07-08T04:15:15.595Z,3.10
2018-07-08T04:18:19.050Z,4.10
2018-07-08T04:21:22.183Z,3.50
2018-07-08T04:24:25.526Z,2.83
2018-07-08T04:27:28.876Z,2.77
2018-07-08T04:30:33.175Z,3.07
2018-07-08T04:33:36.439Z,2.80
2018-07-08T04:36:39.764Z,3.00
2018-07-08T04:39:43.170Z,2.93
2018-07-08T04:42:46.483Z,3.20
2018-07-08T04:45:49.788Z,2.90
2018-07-08T04:48:53.014Z,3.03
2018-07-08T04:51:56.097Z,3.20
2018-07-08T04:54:59.363Z,3.20
2018-07-08T04:58:02.592Z,3.20
2018-07-08T05:01:05.803Z,3.13
2018-07-08T05:04:08.954Z,2.87
2018-07-08T05:07:12.121Z,2.90
2018-07-08T05:10:15.290Z,3.37
2018-07-08T05:13:18.423Z,3.00
2018-07-08T05:16:21.608Z,3.10
2018-07-08T05:19:24.775Z,3.17
2018-07-08T05:22:28.007Z,2.90
2018-07-08T05:25:31.176Z,3.20
2018-07-08T05:28:34.368Z,2.87
2018-07-08T05:31:37.739Z,3.03
2018-07-08T05:34:41.250Z,3.37
2018-07-08T05:37:44.434Z,3.17
2018-07-08T05:40:47.613Z,3.20
2018-07-08T05:43:50.756Z,3.23
2018-07-08T05:46:53.981Z,3.20
2018-07-08T05:49:57.175Z,2.90
2018-07-08T05:53:00.365Z,3.33
2018-07-08T05:56:03.571Z,3.53
2018-07-08T05:59:06.771Z,3.10
2018-07-08T06:02:09.931Z,3.07
2018-07-08T06:05:13.077Z,3.27
2018-07-08T06:08:16.812Z,3.20
2018-07-08T06:11:19.966Z,3.20
2018-07-08T06:14:23.144Z,3.10
2018-07-08T06:17:26.549Z,3.20
2018-07-08T06:20:30.273Z,2.90
2018-07-08T06:23:33.515Z,2.63
2018-07-08T06:26:36.747Z,3.03
2018-07-08T06:29:39.895Z,2.50
2018-07-08T06:32:43.050Z,2.17
2018-07-08T06:35:46.259Z,2.43
2018-07-08T06:38:49.415Z,2.40
2018-07-08T06:41:52.568Z,2.10
2018-07-08T06:44:55.725Z,2.30
2018-07-08T06:47:58.915Z,1.87
2018-07-08T06:51:02.098Z,1.90
2018-07-08T06:54:05.469Z,1.87
2018-07-08T06:57:08.675Z,2.00
2018-07-08T07:00:11.892Z,2.37
2018-07-08T07:03:15.138Z,2.50
2018-07-08T07:06:18.360Z,2.20
2018-07-08T07:09:21.592Z,1.93
2018-07-08T07:12:24.816Z,1.70
2018-07-08T07:15:28.193Z,2.00
2018-07-08T07:18:31.465Z,1.70
2018-07-08T07:21:34.710Z,2.17
2018-07-08T07:24:38.016Z,2.13
2018-07-08T07:27:41.207Z,2.53
2018-07-08T07:30:44.433Z,1.80
2018-07-08T07:33:47.689Z,1.80
2018-07-08T07:36:50.936Z,1.60
2018-07-08T07:39:54.164Z,1.80
2018-07-08T07:42:57.398Z,2.17
2018-07-08T07:46:01.258Z,2.97
2018-07-08T07:49:04.819Z,1.60
2018-07-08T07:52:08.196Z,1.60
2018-07-08T07:55:11.396Z,1.70
2018-07-08T07:58:14.568Z,3.60
2018-07-08T08:01:17.832Z,1.60
2018-07-08T08:04:21.007Z,1.93
2018-07-08T08:07:24.210Z,1.67
2018-07-08T08:10:27.413Z,1.87
2018-07-08T08:13:30.591Z,1.80
2018-07-08T08:16:33.867Z,1.40
2018-07-08T08:19:37.124Z,1.60
2018-07-08T08:22:40.331Z,1.80
2018-07-08T08:25:43.550Z,1.50
2018-07-08T08:28:46.764Z,1.40
2018-07-08T08:31:49.923Z,1.20
2018-07-08T08:34:56.200Z,1.40
2018-07-08T08:37:59.363Z,1.17
2018-07-08T08:41:02.540Z,1.60
2018-07-08T08:44:05.954Z,1.50
2018-07-08T08:47:09.102Z,1.60
2018-07-08T08:50:12.945Z,1.53
2018-07-08T08:53:16.282Z,1.20
2018-07-08T08:56:19.472Z,1.50
2018-07-08T08:59:22.684Z,1.30
2018-07-08T09:02:25.900Z,1.43
2018-07-08T09:05:29.108Z,2.87
2018-07-08T09:08:32.307Z,1.30
2018-07-08T09:11:35.509Z,1.50
2018-07-08T09:14:39.135Z,1.33
2018-07-08T09:17:42.339Z,1.33
2018-07-08T09:20:45.563Z,1.07
2018-07-08T09:23:48.841Z,1.30
2018-07-08T09:26:52.039Z,1.30
2018-07-08T09:29:55.256Z,1.40
2018-07-08T09:32:58.481Z,1.30
2018-07-08T09:36:01.683Z,1.23
2018-07-08T09:39:06.947Z,1.30
2018-07-08T09:42:10.129Z,1.10
2018-07-08T09:45:13.097Z,1.57
2018-07-08T09:48:16.310Z,2.13
2018-07-08T09:51:19.567Z,1.33
2018-07-08T09:54:22.784Z,1.00
2018-07-08T09:57:25.995Z,1.67
2018-07-08T10:00:29.244Z,1.33
2018-07-08T10:03:34.115Z,1.60
2018-07-08T10:06:37.312Z,1.50
2018-07-08T10:09:40.528Z,1.40
2018-07-08T10:12:43.755Z,1.20
2018-07-08T10:15:46.956Z,1.50
2018-07-08T10:18:50.159Z,1.50
2018-07-08T10:21:53.378Z,1.40
2018-07-08T10:24:56.571Z,1.50
2018-07-08T10:28:14.754Z,1.80
2018-07-08T10:31:21.223Z,1.37
2018-07-08T10:34:24.432Z,1.57
2018-07-08T10:37:27.696Z,2.07
2018-07-08T10:40:31.092Z,1.70
2018-07-08T10:43:34.633Z,2.37
2018-07-08T10:46:37.610Z,1.53
2018-07-08T10:49:40.831Z,1.93
2018-07-08T10:52:43.988Z,1.60
2018-07-08T10:55:47.212Z,1.60
2018-07-08T10:58:50.432Z,1.50
2018-07-08T11:01:53.731Z,1.47
2018-07-08T11:04:56.952Z,1.70
2018-07-08T11:08:00.152Z,1.60
2018-07-08T11:11:03.376Z,1.50
2018-07-08T11:14:06.591Z,1.60
2018-07-08T11:17:09.795Z,1.50
2018-07-08T11:20:13.103Z,1.50
2018-07-08T11:23:16.399Z,1.60
2018-07-08T11:26:19.355Z,1.80
2018-07-08T11:29:22.682Z,1.63
2018-07-08T11:32:25.961Z,1.60
2018-07-08T11:35:29.202Z,1.63
2018-07-08T11:38:32.415Z,1.53
2018-07-08T11:41:35.756Z,1.47
2018-07-08T11:44:39.071Z,2.00
2018-07-08T11:47:42.326Z,1.63
2018-07-08T11:50:45.607Z,2.70
2018-07-08T11:53:48.839Z,1.40
2018-07-08T11:56:52.670Z,1.23
2018-07-08T11:59:55.948Z,3.30
2018-07-08T12:02:59.249Z,1.50
2018-07-08T12:06:02.463Z,1.40
2018-07-08T12:09:06.372Z,1.70
2018-07-08T12:12:09.579Z,1.33
2018-07-08T12:15:12.860Z,1.40
2018-07-08T12:18:16.145Z,1.70
2018-07-08T12:21:19.496Z,1.50
2018-07-08T12:24:22.675Z,1.30
2018-07-08T12:27:25.730Z,1.70
2018-07-08T12:30:28.947Z,2.30
2018-07-08T12:33:32.200Z,1.40
2018-07-08T12:36:35.159Z,1.30
2018-07-08T12:39:38.366Z,1.30
2018-07-08T12:42:41.591Z,2.30
2018-07-08T12:45:44.883Z,1.60
2018-07-08T12:48:48.187Z,1.37
2018-07-08T12:51:51.396Z,1.30
2018-07-08T12:54:54.635Z,1.50
2018-07-08T12:57:57.855Z,1.60
2018-07-08T13:01:01.414Z,1.37
2018-07-08T13:04:04.742Z,1.23
2018-07-08T13:07:08.083Z,1.80
2018-07-08T13:10:11.329Z,1.37
2018-07-08T13:13:14.606Z,1.57
2018-07-08T13:16:18.018Z,1.10
2018-07-08T13:19:21.528Z,1.30
2018-07-08T13:22:26.253Z,1.50
2018-07-08T13:25:29.571Z,1.10
2018-07-08T13:28:33.064Z,1.30
2018-07-08T13:31:36.747Z,1.27
2018-07-08T13:34:40.158Z,1.10
2018-07-08T13:37:43.427Z,1.10
2018-07-08T13:40:46.715Z,1.30
2018-07-08T13:43:49.942Z,1.30
2018-07-08T13:46:53.643Z,0.97
2018-07-08T13:49:56.976Z,1.20
2018-07-08T13:53:00.201Z,1.10
2018-07-08T13:56:03.423Z,1.80
2018-07-08T13:59:06.682Z,1.50
2018-07-08T14:02:09.882Z,1.00
2018-07-08T14:05:13.117Z,1.40
2018-07-08T14:08:16.834Z,1.60
2018-07-08T14:11:20.037Z,1.43
2018-07-08T14:14:23.297Z,1.30
2018-07-08T14:17:26.397Z,3.83
2018-07-08T14:20:29.620Z,1.40
2018-07-08T14:23:33.368Z,1.73
2018-07-08T14:26:36.561Z,1.30
2018-07-08T14:29:40.060Z,1.10
2018-07-08T14:32:43.504Z,1.00
2018-07-08T14:35:46.475Z,1.10
2018-07-08T14:38:49.635Z,1.00
2018-07-08T14:41:53.204Z,1.23
2018-07-08T14:44:56.369Z,1.37
2018-07-08T14:47:59.548Z,1.87
2018-07-08T14:51:02.721Z,1.63
2018-07-08T14:54:05.891Z,1.23
2018-07-08T14:57:09.069Z,1.20
2018-07-08T15:00:12.279Z,1.00
2018-07-08T15:03:15.443Z,1.20
2018-07-08T15:06:18.720Z,1.30
2018-07-08T15:09:21.886Z,1.87
2018-07-08T15:12:25.056Z,1.17
2018-07-08T15:15:28.269Z,1.00
2018-07-08T15:18:31.564Z,0.80
2018-07-08T15:21:34.788Z,1.10
2018-07-08T15:24:37.980Z,1.10
2018-07-08T15:27:41.152Z,1.43
2018-07-08T15:30:44.315Z,1.10
2018-07-08T15:33:48.319Z,1.40
2018-07-08T15:36:51.475Z,1.23
2018-07-08T15:39:54.731Z,1.30
2018-07-08T15:42:57.927Z,1.10
2018-07-08T15:46:01.087Z,1.23
2018-07-08T15:49:04.308Z,1.40
2018-07-08T15:52:07.868Z,1.00
2018-07-08T15:55:11.081Z,1.00
2018-07-08T15:58:14.271Z,1.23
2018-07-08T16:01:17.449Z,1.20
2018-07-08T16:04:20.613Z,1.20
2018-07-08T16:07:23.800Z,1.00
2018-07-08T16:10:26.963Z,1.07
2018-07-08T16:13:30.132Z,1.10
2018-07-08T16:16:33.339Z,1.03
2018-07-08T16:19:36.561Z,1.00
2018-07-08T16:22:39.930Z,1.07
2018-07-08T16:25:43.120Z,1.27
2018-07-08T16:28:46.295Z,1.40
2018-07-08T16:31:49.594Z,1.20
2018-07-08T16:34:52.859Z,1.00
2018-07-08T16:37:56.032Z,1.13
2018-07-08T16:44:08.968Z,1.20
2018-07-08T16:47:13.396Z,1.70
2018-07-08T16:50:16.622Z,1.30
2018-07-08T16:53:19.958Z,1.40
2018-07-08T16:56:23.250Z,1.07
2018-07-08T16:59:26.348Z,1.17
2018-07-08T17:02:29.867Z,1.57
2018-07-08T17:05:33.094Z,1.60
2018-07-08T17:08:36.037Z,1.47
2018-07-08T17:11:39.483Z,1.50
2018-07-08T17:14:42.736Z,1.50
2018-07-08T17:17:45.902Z,1.50
2018-07-08T17:20:49.331Z,1.50
2018-07-08T17:23:52.499Z,1.17
2018-07-08T17:26:55.674Z,2.00
2018-07-08T17:29:58.623Z,1.30
2018-07-08T17:33:01.890Z,1.50
2018-07-08T17:36:05.140Z,1.10
2018-07-08T17:39:08.471Z,1.63
2018-07-08T17:42:12.131Z,1.90
2018-07-08T17:45:15.747Z,1.50
2018-07-08T17:48:18.908Z,1.93
2018-07-08T17:51:22.062Z,1.63
2018-07-08T17:54:25.223Z,1.50
2018-07-08T17:57:28.405Z,1.63
2018-07-08T18:00:31.551Z,1.20
2018-07-08T18:03:34.698Z,1.50
2018-07-08T18:06:37.865Z,1.20
2018-07-08T18:09:41.007Z,1.40
2018-07-08T18:12:44.244Z,1.60
2018-07-08T18:15:47.809Z,1.60
2018-07-08T18:18:51.883Z,1.40
2018-07-08T18:21:55.252Z,1.40
2018-07-08T18:24:58.407Z,1.47
2018-07-08T18:28:01.563Z,1.50
2018-07-08T18:31:04.475Z,1.50
2018-07-08T18:34:08.287Z,1.33
2018-07-08T18:37:11.468Z,1.47
2018-07-08T18:40:15.187Z,1.53
2018-07-08T18:43:18.359Z,1.37
2018-07-08T18:46:21.908Z,1.70
2018-07-08T18:49:25.008Z,1.73
2018-07-08T18:52:28.212Z,1.47
2018-07-08T18:55:31.457Z,1.67
2018-07-08T18:58:35.178Z,3.40
2018-07-08T19:01:38.459Z,1.67
2018-07-08T19:04:41.783Z,1.60
2018-07-08T19:07:45.105Z,1.63
2018-07-08T19:10:48.526Z,1.70
2018-07-08T19:13:51.835Z,1.93
2018-07-08T19:16:55.038Z,1.60
2018-07-08T19:19:58.366Z,1.80
2018-07-08T19:23:01.697Z,1.50
2018-07-08T19:26:05.108Z,1.90
2018-07-08T19:29:08.323Z,1.83
2018-07-08T19:32:11.612Z,1.90
2018-07-08T19:35:14.991Z,1.93
2018-07-08T19:38:18.287Z,1.60
2018-07-08T19:41:21.511Z,1.67
2018-07-08T19:44:24.491Z,2.63
2018-07-08T19:47:27.739Z,1.63
2018-07-08T19:50:31.004Z,1.77
2018-07-08T19:53:34.179Z,1.97
2018-07-08T19:56:37.335Z,1.90
2018-07-08T19:59:40.496Z,2.20
2018-07-08T20:02:43.655Z,2.03
2018-07-08T20:05:46.805Z,1.80
2018-07-08T20:08:50.044Z,2.00
2018-07-08T20:11:53.200Z,2.23
2018-07-08T20:14:56.388Z,1.90
2018-07-08T20:17:59.567Z,1.97
2018-07-08T20:21:02.836Z,1.83
2018-07-08T20:24:05.932Z,2.70
2018-07-08T20:27:09.120Z,2.33
2018-07-08T20:30:12.316Z,2.33
2018-07-08T20:33:15.480Z,2.27
2018-07-08T20:36:18.663Z,1.90
2018-07-08T20:39:21.859Z,2.50
2018-07-08T20:42:25.021Z,2.07
2018-07-08T20:45:28.219Z,2.40
2018-07-08T20:48:31.444Z,2.00
2018-07-08T20:51:34.947Z,2.20
2018-07-08T20:54:38.160Z,2.30
2018-07-08T20:57:41.308Z,2.20
2018-07-08T21:00:44.503Z,2.20
2018-07-08T21:03:47.636Z,2.10
2018-07-08T21:06:50.887Z,2.80
2018-07-08T21:09:54.051Z,2.27
2018-07-08T21:12:57.217Z,2.57
2018-07-08T21:16:00.455Z,2.57
2018-07-08T21:19:04.720Z,4.20
2018-07-08T21:22:07.866Z,2.33
2018-07-08T21:25:11.060Z,2.33
2018-07-08T21:28:14.251Z,2.20
2018-07-08T21:31:17.466Z,2.13
2018-07-08T21:34:20.604Z,2.30
2018-07-08T21:37:24.307Z,2.43
2018-07-08T21:40:27.500Z,2.73
2018-07-08T21:43:30.856Z,2.37
2018-07-08T21:46:34.110Z,2.70
2018-07-08T21:49:37.344Z,4.63
2018-07-08T21:52:40.563Z,2.90
2018-07-08T21:55:43.752Z,3.53
2018-07-08T21:58:46.957Z,2.70
2018-07-08T22:01:56.743Z,2.93
2018-07-08T22:04:59.932Z,3.30
2018-07-08T22:08:03.660Z,3.17
2018-07-08T22:11:08.279Z,3.00
2018-07-08T22:14:11.688Z,2.60
2018-07-08T22:17:14.911Z,2.87
2018-07-08T22:20:18.085Z,3.30
2018-07-08T22:23:21.464Z,2.80
2018-07-08T22:26:24.615Z,3.10
2018-07-08T22:29:27.771Z,3.00
2018-07-08T22:32:30.972Z,3.50
2018-07-08T22:35:34.123Z,3.53
2018-07-08T22:38:37.296Z,3.27
2018-07-08T22:41:40.604Z,3.13
2018-07-08T22:44:43.747Z,3.53
2018-07-08T22:47:46.947Z,3.50
2018-07-08T22:50:50.135Z,3.40
2018-07-08T22:53:53.951Z,4.10
2018-07-08T22:56:57.198Z,3.73
2018-07-08T23:00:11.732Z,4.10
2018-07-08T23:03:24.740Z,3.13
2018-07-08T23:06:28.008Z,3.40
2018-07-08T23:09:31.279Z,3.60
2018-07-08T23:12:34.743Z,3.67
2018-07-08T23:15:38.097Z,3.67
2018-07-08T23:18:41.371Z,3.60
2018-07-08T23:21:44.583Z,3.60
2018-07-08T23:24:47.795Z,3.90
2018-07-08T23:27:51.051Z,3.90
2018-07-08T23:30:54.247Z,3.80
2018-07-08T23:33:57.467Z,4.00
2018-07-08T23:37:00.705Z,3.97
2018-07-08T23:40:04.077Z,4.17
2018-07-08T23:43:07.665Z,4.67
2018-07-08T23:46:10.889Z,4.23
2018-07-08T23:49:14.179Z,4.43
2018-07-08T23:52:17.484Z,4.70
2018-07-08T23:55:21.015Z,4.20
2018-07-08T23:58:24.163Z,4.70
